Time;durP1;ratioP1;P1;durP2;ratioP2;P2;SDS_P1;SDS_P2;PMS_P1;PMS_P2;Temp;Humidity;BMP_temperature;BMP_pressure;BME280_temperature;BME280_humidity;BME280_pressure;Samples;Min_cycle;Max_cycle;Signal;HPM_P1;HPM_P2
2022/07/26 00:00:19;;;;;;;23.83;13.52;;;;;;;21.29;100.00;97115.25;5075922;28;20102;-81
2022/07/26 00:02:45;;;;;;;18.95;13.25;;;;;;;21.13;100.00;97097.13;5064496;28;20029;-81
2022/07/26 00:05:15;;;;;;;20.50;14.10;;;;;;;20.99;100.00;97112.22;5048161;28;20081;-81
2022/07/26 00:07:41;;;;;;;19.98;13.25;;;;;;;21.01;100.00;97106.63;5066924;28;20021;-80
2022/07/26 00:10:07;;;;;;;16.40;12.15;;;;;;;21.00;100.00;97104.91;5057475;28;20032;-80
2022/07/26 00:12:32;;;;;;;19.17;12.65;;;;;;;20.82;100.00;97087.91;5061454;28;20029;-80
2022/07/26 00:14:58;;;;;;;16.40;12.82;;;;;;;20.84;100.00;97099.47;5059144;28;20413;-81
2022/07/26 00:17:24;;;;;;;17.23;12.45;;;;;;;20.84;100.00;97104.91;5053119;28;20119;-81
2022/07/26 00:19:50;;;;;;;18.42;12.88;;;;;;;20.80;100.00;97106.25;5046358;28;20024;-81
2022/07/26 00:22:34;;;;;;;18.05;12.43;;;;;;;20.83;100.00;97104.03;5043520;28;20471;-81
2022/07/26 00:25:01;;;;;;;17.58;12.38;;;;;;;20.77;100.00;97098.44;5065517;28;20081;-81
2022/07/26 00:27:37;;;;;;;16.95;12.80;;;;;;;20.72;100.00;97096.22;5039497;28;20025;-81
2022/07/26 00:30:08;;;;;;;18.60;12.77;;;;;;;20.69;100.00;97096.56;5053517;28;20044;-81
2022/07/26 00:32:33;;;;;;;19.38;14.15;;;;;;;20.71;100.00;97093.66;5061614;28;20057;-81
2022/07/26 00:34:59;;;;;;;18.40;13.13;;;;;;;20.71;100.00;97083.66;5053705;28;20028;-81
2022/07/26 00:37:25;;;;;;;18.58;12.60;;;;;;;20.69;100.00;97082.97;5040097;28;20026;-80
2022/07/26 00:39:50;;;;;;;17.83;13.02;;;;;;;20.71;100.00;97066.47;5066705;28;20043;-82
2022/07/26 00:42:16;;;;;;;18.25;12.20;;;;;;;20.76;100.00;97080.44;5044550;28;20408;-82
2022/07/26 00:44:43;;;;;;;20.23;12.48;;;;;;;20.78;100.00;97078.38;5049544;28;20061;-82
2022/07/26 00:47:09;;;;;;;17.52;13.00;;;;;;;20.71;100.00;97072.78;5056662;28;20536;-81
2022/07/26 00:49:34;;;;;;;21.40;12.88;;;;;;;20.47;100.00;97070.91;5051757;28;20031;-82
2022/07/26 00:52:00;;;;;;;19.92;12.57;;;;;;;20.43;100.00;97077.66;5065242;28;20085;-81
2022/07/26 00:54:26;;;;;;;20.95;13.18;;;;;;;20.36;100.00;97075.81;5052804;28;20036;-82
2022/07/26 00:56:52;;;;;;;20.17;12.85;;;;;;;20.35;100.00;97071.38;5052701;28;20491;-81
2022/07/26 00:59:18;;;;;;;19.58;13.80;;;;;;;20.36;100.00;97073.09;5052967;28;20032;-82
2022/07/26 01:01:44;;;;;;;17.35;13.93;;;;;;;20.34;100.00;97067.81;5044413;28;20496;-82
2022/07/26 01:04:09;;;;;;;16.05;12.50;;;;;;;20.47;100.00;97076.31;5057085;28;20024;-82
2022/07/26 01:06:35;;;;;;;19.75;13.20;;;;;;;20.40;100.00;97069.00;5065385;28;20055;-81
2022/07/26 01:09:02;;;;;;;16.92;12.98;;;;;;;20.44;100.00;97087.53;5041548;28;20519;-81
2022/07/26 01:11:27;;;;;;;17.67;13.10;;;;;;;20.28;100.00;97049.47;5069594;28;20127;-81
2022/07/26 01:13:53;;;;;;;20.27;14.27;;;;;;;20.43;100.00;97071.38;5050451;28;20119;-81
2022/07/26 01:16:19;;;;;;;20.92;14.88;;;;;;;20.47;100.00;97080.91;5058484;28;20116;-81
2022/07/26 01:18:44;;;;;;;24.40;16.30;;;;;;;20.47;100.00;97075.47;5044642;28;20032;-81
2022/07/26 01:21:11;;;;;;;24.15;16.73;;;;;;;20.46;100.00;97076.47;5044126;28;20039;-82
2022/07/26 01:23:37;;;;;;;26.52;17.42;;;;;;;20.48;100.00;97088.06;5073121;28;20086;-81
2022/07/26 01:26:03;;;;;;;28.35;17.58;;;;;;;20.26;100.00;97083.25;5046848;28;20036;-81
2022/07/26 01:28:28;;;;;;;25.73;16.33;;;;;;;20.28;100.00;97089.34;5066654;28;20032;-81
2022/07/26 01:30:55;;;;;;;20.98;16.25;;;;;;;20.21;100.00;97086.41;5063619;28;20112;-81
2022/07/26 01:33:21;;;;;;;22.05;16.20;;;;;;;20.10;100.00;97085.88;5073078;28;20212;-81
2022/07/26 01:35:46;;;;;;;22.17;17.02;;;;;;;20.08;100.00;97085.22;5056461;28;20017;-81
2022/07/26 01:38:12;;;;;;;24.80;17.33;;;;;;;20.02;100.00;97076.72;5072681;28;20039;-81
2022/07/26 01:40:38;;;;;;;26.63;16.70;;;;;;;20.03;100.00;97083.81;5044033;28;20033;-81
2022/07/26 01:43:03;;;;;;;20.80;15.77;;;;;;;20.08;100.00;97080.63;5048844;28;20028;-81
2022/07/26 01:45:30;;;;;;;20.23;14.13;;;;;;;20.03;100.00;97072.97;5045705;28;20028;-81
2022/07/26 01:47:56;;;;;;;21.25;14.02;;;;;;;19.96;100.00;97076.53;5055832;28;20023;-82
2022/07/26 01:50:21;;;;;;;20.55;13.85;;;;;;;20.02;100.00;97075.88;5045063;28;20036;-81
2022/07/26 01:52:47;;;;;;;20.70;14.52;;;;;;;19.83;100.00;97068.84;5043678;28;20028;-82
2022/07/26 01:55:12;;;;;;;21.65;14.77;;;;;;;19.70;100.00;97075.72;5054708;28;20053;-82
2022/07/26 01:57:38;;;;;;;21.65;14.45;;;;;;;19.72;100.00;97068.28;5061422;28;20025;-82
2022/07/26 02:00:05;;;;;;;25.23;15.30;;;;;;;19.69;100.00;97076.72;5053070;28;20048;-82
2022/07/26 02:02:31;;;;;;;18.42;14.05;;;;;;;19.60;100.00;97062.28;5071812;28;20169;-82
2022/07/26 02:05:00;;;;;;;21.90;14.32;;;;;;;19.70;100.00;97081.16;5051817;28;20519;-82
2022/07/26 02:07:30;;;;;;;19.38;14.25;;;;;;;19.67;100.00;97081.47;5043768;28;20040;-82
2022/07/26 02:09:56;;;;;;;18.90;14.52;;;;;;;19.65;100.00;97073.53;5043547;28;20443;-82
2022/07/26 02:12:22;;;;;;;21.50;14.05;;;;;;;19.65;100.00;97087.09;5055370;28;20036;-82
2022/07/26 02:14:48;;;;;;;19.90;14.43;;;;;;;19.71;100.00;97089.16;5051447;28;20032;-80
2022/07/26 02:17:14;;;;;;;22.45;13.90;;;;;;;19.47;100.00;97067.31;5046895;28;20495;-80
2022/07/26 02:19:39;;;;;;;19.77;13.98;;;;;;;19.54;100.00;97081.06;5068273;28;20029;-79
2022/07/26 02:22:05;;;;;;;19.38;13.15;;;;;;;19.48;100.00;97086.13;5047222;28;20043;-79
2022/07/26 02:24:31;;;;;;;23.00;13.88;;;;;;;19.42;100.00;97083.22;5047010;28;20028;-79
2022/07/26 02:26:58;;;;;;;22.63;14.70;;;;;;;19.38;100.00;97092.69;5063596;28;20044;-80
2022/07/26 02:29:25;;;;;;;25.40;15.13;;;;;;;19.41;100.00;97076.94;5055289;28;20052;-80
2022/07/26 02:31:51;;;;;;;21.45;14.45;;;;;;;19.44;100.00;97081.22;5067799;28;20491;-80
2022/07/26 02:34:17;;;;;;;22.70;14.63;;;;;;;19.34;100.00;97075.00;5054325;28;20028;-82
2022/07/26 02:36:43;;;;;;;21.70;14.82;;;;;;;19.24;100.00;97077.84;5076075;28;20024;-80
2022/07/26 02:39:09;;;;;;;23.02;14.20;;;;;;;19.26;100.00;97072.22;5051122;28;20036;-80
2022/07/26 02:41:34;;;;;;;27.67;15.43;;;;;;;19.26;100.00;97066.81;5053774;28;20033;-81
2022/07/26 02:44:00;;;;;;;21.10;14.07;;;;;;;19.32;100.00;97074.31;5046550;28;20017;-81
2022/07/26 02:46:26;;;;;;;21.55;14.63;;;;;;;19.16;100.00;97071.50;5072941;28;20513;-82
2022/07/26 02:48:51;;;;;;;23.35;14.35;;;;;;;19.24;100.00;97079.69;5071850;28;20021;-83
2022/07/26 02:51:17;;;;;;;19.88;15.30;;;;;;;19.16;100.00;97074.22;5051580;28;20025;-81
2022/07/26 02:53:42;;;;;;;22.50;15.25;;;;;;;19.29;100.00;97080.03;5067138;28;20181;-82
2022/07/26 02:56:08;;;;;;;22.45;14.90;;;;;;;19.32;100.00;97090.56;5055058;28;20023;-82
2022/07/26 02:58:35;;;;;;;24.77;14.68;;;;;;;19.39;100.00;97088.94;5050696;28;20038;-82
2022/07/26 03:01:01;;;;;;;24.73;15.43;;;;;;;19.44;100.00;97087.47;5054380;28;20044;-82
2022/07/26 03:03:27;;;;;;;23.88;15.60;;;;;;;19.38;100.00;97093.50;5042386;28;20082;-81
2022/07/26 03:05:52;;;;;;;28.20;17.75;;;;;;;19.31;100.00;97097.03;5054673;28;20039;-82
2022/07/26 03:08:18;;;;;;;45.95;21.15;;;;;;;19.26;100.00;97089.34;5044693;28;20028;-82
2022/07/26 03:10:43;;;;;;;24.60;15.88;;;;;;;19.18;100.00;97093.88;5067195;28;20403;-82
2022/07/26 03:13:09;;;;;;;38.75;17.27;;;;;;;19.31;100.00;97097.03;5052603;28;20040;-82
2022/07/26 03:15:35;;;;;;;28.33;14.98;;;;;;;19.19;100.00;97095.59;5044709;28;20106;-82
2022/07/26 03:18:00;;;;;;;22.92;13.95;;;;;;;19.18;100.00;97086.59;5071016;28;20060;-83
2022/07/26 03:20:26;;;;;;;17.27;13.30;;;;;;;19.05;100.00;97096.16;5063055;28;20032;-83
2022/07/26 03:22:52;;;;;;;19.63;14.18;;;;;;;19.02;100.00;97105.47;5045836;28;20040;-83
2022/07/26 03:25:17;;;;;;;28.52;16.17;;;;;;;19.08;100.00;97106.69;5044443;28;20084;-82
2022/07/26 03:27:43;;;;;;;22.27;16.05;;;;;;;19.02;100.00;97110.03;5043182;28;20415;-82
2022/07/26 03:30:09;;;;;;;26.88;18.48;;;;;;;19.08;100.00;97103.97;5043143;28;20079;-82
2022/07/26 03:32:35;;;;;;;26.73;16.80;;;;;;;19.05;100.00;97097.00;5070669;28;20065;-81
2022/07/26 03:35:00;;;;;;;22.02;15.52;;;;;;;19.14;100.00;97100.63;5043665;28;20040;-82
2022/07/26 03:37:26;;;;;;;21.17;15.00;;;;;;;19.19;100.00;97101.88;5050710;28;20033;-82
2022/07/26 03:39:52;;;;;;;23.38;14.75;;;;;;;19.09;100.00;97095.69;5048386;28;20222;-82
2022/07/26 03:42:17;;;;;;;22.33;14.98;;;;;;;19.26;100.00;97100.22;5041670;28;20167;-84
2022/07/26 03:44:43;;;;;;;25.52;15.82;;;;;;;19.27;100.00;97106.50;5042637;28;20032;-84
2022/07/26 03:47:08;;;;;;;23.35;16.83;;;;;;;19.27;100.00;97092.94;5064983;28;20025;-82
2022/07/26 03:49:40;;;;;;;27.50;15.93;;;;;;;19.40;100.00;97105.09;5047002;28;20574;-82
2022/07/26 03:52:06;;;;;;;26.27;16.48;;;;;;;19.41;100.00;97108.66;5061360;28;20028;-83
2022/07/26 03:54:31;;;;;;;22.02;16.60;;;;;;;19.12;100.00;97091.81;5053669;28;20028;-83
2022/07/26 03:56:57;;;;;;;35.47;17.98;;;;;;;19.21;100.00;97086.28;5058661;28;20029;-83
2022/07/26 03:59:24;;;;;;;26.08;17.70;;;;;;;19.31;100.00;97097.03;5068216;28;20023;-84
2022/07/26 04:01:50;;;;;;;28.17;17.90;;;;;;;19.26;100.00;97104.78;5058871;28;20072;-83
2022/07/26 04:04:19;;;;;;;31.50;18.08;;;;;;;19.16;100.00;97099.47;5048095;28;20116;-83
2022/07/26 04:06:55;;;;;;;30.30;17.10;;;;;;;19.09;100.00;97097.56;5054318;28;20032;-83
2022/07/26 04:09:21;;;;;;;23.10;16.27;;;;;;;19.33;100.00;97090.44;5046883;28;20484;-81
2022/07/26 04:11:47;;;;;;;31.33;18.95;;;;;;;19.36;100.00;97084.69;5064578;28;20123;-81
2022/07/26 04:14:13;;;;;;;26.90;17.70;;;;;;;19.38;100.00;97081.81;5070072;28;20116;-81
2022/07/26 04:16:39;;;;;;;36.38;19.02;;;;;;;19.39;100.00;97088.94;5070113;28;20055;-82
2022/07/26 04:19:05;;;;;;;34.97;18.75;;;;;;;19.42;100.00;97080.50;5059353;28;20408;-81
2022/07/26 04:21:30;;;;;;;33.65;19.05;;;;;;;19.48;100.00;97082.56;5053021;28;20028;-81
2022/07/26 04:23:56;;;;;;;39.40;20.17;;;;;;;19.49;100.00;97089.72;5068446;28;20081;-80
2022/07/26 04:26:22;;;;;;;32.70;19.95;;;;;;;19.71;100.00;97091.88;5062759;28;20020;-81
2022/07/26 04:28:47;;;;;;;27.67;18.23;;;;;;;19.79;100.00;97093.75;5046485;28;20040;-77
2022/07/26 04:31:13;;;;;;;31.08;18.10;;;;;;;19.98;100.00;97094.34;5049671;28;20056;-81
2022/07/26 04:33:38;;;;;;;30.95;19.70;;;;;;;20.02;100.00;97090.28;5065611;28;20083;-80
2022/07/26 04:36:04;;;;;;;38.92;18.83;;;;;;;20.29;100.00;97078.34;5045093;28;20142;-82
2022/07/26 04:38:30;;;;;;;33.90;19.35;;;;;;;21.04;100.00;97090.78;5052805;28;20032;-81
2022/07/26 04:40:56;;;;;;;37.58;19.75;;;;;;;22.55;95.09;97087.88;5065379;28;20389;-81
2022/07/26 04:43:23;;;;;;;33.92;17.33;;;;;;;23.46;86.57;97083.28;5051349;28;20028;-80
2022/07/26 04:45:49;;;;;;;37.08;19.95;;;;;;;22.59;87.86;97062.81;5050461;28;20031;-81
2022/07/26 04:48:15;;;;;;;33.25;18.85;;;;;;;21.94;93.35;97092.31;5070351;28;20500;-81
2022/07/26 04:50:41;;;;;;;33.05;18.58;;;;;;;21.63;96.11;97077.78;5050699;28;20115;-81
2022/07/26 04:53:09;;;;;;;35.80;18.52;;;;;;;21.65;97.26;97083.91;5070266;28;20025;-81
2022/07/26 04:55:38;;;;;;;32.78;17.83;;;;;;;21.27;100.00;97074.63;5052820;28;20052;-81
2022/07/26 04:58:04;;;;;;;42.75;19.98;;;;;;;21.30;100.00;97084.31;5066104;28;20030;-81
2022/07/26 05:00:29;;;;;;;38.53;21.40;;;;;;;21.42;100.00;97077.50;5049070;28;20044;-81
2022/07/26 05:02:59;;;;;;;34.95;20.55;;;;;;;21.34;100.00;97086.53;5052367;28;20032;-82
2022/07/26 05:05:27;;;;;;;32.40;21.13;;;;;;;21.52;100.00;97075.44;5071892;28;20640;-81
2022/07/26 05:07:55;;;;;;;30.23;19.70;;;;;;;21.69;100.00;97089.84;5057260;28;20029;-81
2022/07/26 05:10:26;;;;;;;39.22;24.50;;;;;;;21.86;97.65;97064.25;5073900;28;20480;-80
2022/07/26 05:12:52;;;;;;;34.75;22.52;;;;;;;21.93;98.37;97071.56;5074648;28;20089;-81
2022/07/26 05:15:17;;;;;;;32.45;22.40;;;;;;;22.06;97.09;97074.56;5065215;28;20029;-81
2022/07/26 05:17:43;;;;;;;47.05;20.85;;;;;;;22.06;96.96;97066.38;5056976;28;20028;-80
2022/07/26 05:20:11;;;;;;;37.90;22.85;;;;;;;22.44;95.30;97070.09;5056875;28;20510;-80
2022/07/26 05:22:37;;;;;;;30.88;22.60;;;;;;;22.92;92.13;97063.44;5048688;28;20403;-80
2022/07/26 05:25:03;;;;;;;29.77;20.05;;;;;;;23.64;87.79;97064.63;5067208;28;20025;-80
2022/07/26 05:27:29;;;;;;;39.35;21.40;;;;;;;25.24;79.41;97067.13;5039139;28;20025;-81
2022/07/26 05:29:55;;;;;;;42.97;28.67;;;;;;;26.90;70.85;97058.53;5052997;28;20033;-79
2022/07/26 05:32:24;;;;;;;30.65;18.30;;;;;;;28.65;62.69;97044.91;5057046;28;20064;-82
2022/07/26 05:34:49;;;;;;;30.02;19.35;;;;;;;29.45;59.48;97056.03;5082252;28;20388;-82
2022/07/26 05:37:15;;;;;;;28.15;18.65;;;;;;;29.92;57.40;97048.16;5053237;28;20037;-81
2022/07/26 05:39:41;;;;;;;36.83;24.17;;;;;;;30.82;53.55;97038.13;5065040;28;20029;-81
2022/07/26 05:42:06;;;;;;;35.05;20.70;;;;;;;31.34;52.53;97048.41;5073125;28;20480;-81
2022/07/26 05:44:32;;;;;;;65.25;36.88;;;;;;;32.42;49.75;97036.84;5047914;28;20033;-81
2022/07/26 05:46:58;;;;;;;28.65;14.23;;;;;;;31.39;50.66;97037.44;5089829;28;20119;-81
2022/07/26 05:49:24;;;;;;;31.52;14.60;;;;;;;32.79;47.48;97026.25;5046560;28;20093;-81
2022/07/26 05:51:51;;;;;;;28.20;14.77;;;;;;;31.93;49.26;97035.47;5055726;28;20086;-81
2022/07/26 05:54:17;;;;;;;18.13;12.90;;;;;;;32.38;48.13;97030.09;5046782;28;20071;-82
2022/07/26 05:56:43;;;;;;;44.85;20.50;;;;;;;33.17;46.84;97029.19;5054851;28;20066;-80
2022/07/26 05:59:08;;;;;;;27.33;14.52;;;;;;;33.72;45.10;97019.06;5065917;28;20033;-80
2022/07/26 06:01:34;;;;;;;22.35;13.00;;;;;;;33.75;45.00;97026.88;5053606;28;20524;-81
2022/07/26 06:04:00;;;;;;;28.75;15.85;;;;;;;33.76;44.77;97031.34;5072155;28;20035;-81
2022/07/26 06:06:26;;;;;;;21.83;13.05;;;;;;;35.49;40.88;97014.84;5072393;28;20024;-82
2022/07/26 06:08:52;;;;;;;27.60;18.42;;;;;;;35.06;41.66;97021.38;5070863;28;20476;-82
2022/07/26 06:11:17;;;;;;;31.45;14.65;;;;;;;34.98;42.71;97025.44;5048254;28;20021;-81
2022/07/26 06:13:43;;;;;;;18.73;13.88;;;;;;;36.08;39.81;97005.31;5063542;28;20508;-81
2022/07/26 06:16:08;;;;;;;31.15;17.98;;;;;;;34.74;42.73;97018.53;5055854;28;20077;-82
2022/07/26 06:18:34;;;;;;;29.08;21.15;;;;;;;34.50;42.00;97029.06;5055893;28;20032;-83
2022/07/26 06:21:00;;;;;;;19.17;13.93;;;;;;;34.44;42.64;97007.03;5060714;28;20443;-81
2022/07/26 06:23:25;;;;;;;20.52;13.60;;;;;;;35.48;40.49;97002.88;5070273;28;20411;-81
2022/07/26 06:25:51;;;;;;;17.98;12.05;;;;;;;37.02;38.59;97007.94;5054449;28;20120;-82
2022/07/26 06:28:16;;;;;;;25.25;13.60;;;;;;;37.31;37.06;96991.50;5066137;28;20511;-82
2022/07/26 06:30:43;;;;;;;13.65;11.90;;;;;;;35.95;39.17;97008.53;5055521;28;20035;-81
2022/07/26 06:33:09;;;;;;;21.65;10.98;;;;;;;36.11;38.65;96990.84;5055972;28;20111;-81
2022/07/26 06:35:37;;;;;;;22.90;13.05;;;;;;;37.52;36.56;97001.59;5054008;28;20036;-81
2022/07/26 06:38:04;;;;;;;25.73;18.35;;;;;;;38.67;34.92;96988.47;5072417;28;20075;-81
2022/07/26 06:40:30;;;;;;;14.88;9.55;;;;;;;37.89;35.84;96990.94;5072080;28;20032;-81
2022/07/26 06:42:56;;;;;;;12.00;9.77;;;;;;;39.52;33.39;96986.28;5055095;28;20059;-81
2022/07/26 06:45:22;;;;;;;15.02;11.45;;;;;;;39.23;33.81;96979.78;5054941;28;20024;-82
2022/07/26 06:47:48;;;;;;;13.57;9.20;;;;;;;40.27;31.81;96975.50;5054784;28;20041;-82
2022/07/26 06:50:13;;;;;;;14.02;8.55;;;;;;;40.60;31.54;96980.16;5071889;28;20055;-82
2022/07/26 06:52:39;;;;;;;11.90;8.75;;;;;;;39.29;31.91;96965.44;5063496;28;20033;-82
2022/07/26 06:55:05;;;;;;;13.35;8.77;;;;;;;37.21;34.64;96972.81;5071811;28;20059;-81
2022/07/26 06:57:31;;;;;;;12.82;8.30;;;;;;;36.56;35.46;96962.34;5040194;28;20021;-82
2022/07/26 06:59:56;;;;;;;13.02;8.38;;;;;;;37.23;35.01;96981.72;5071174;28;20034;-81
2022/07/26 07:02:22;;;;;;;11.05;8.00;;;;;;;37.01;35.14;96960.81;5056438;28;20496;-83
2022/07/26 07:04:47;;;;;;;14.93;8.60;;;;;;;37.38;34.61;96956.59;5054759;28;20025;-82
2022/07/26 07:07:13;;;;;;;9.35;8.07;;;;;;;37.62;34.19;96965.28;5072176;28;20492;-82
2022/07/26 07:09:39;;;;;;;16.45;8.65;;;;;;;37.79;33.97;96979.78;5064505;28;20440;-82
2022/07/26 07:12:05;;;;;;;17.00;8.93;;;;;;;37.20;34.56;96959.97;5045254;28;20071;-83
2022/07/26 07:14:32;;;;;;;10.10;8.75;;;;;;;37.53;33.88;96966.97;5054834;28;20093;-83
2022/07/26 07:16:58;;;;;;;9.50;8.43;;;;;;;36.12;35.77;96974.94;5055328;28;20557;-82
2022/07/26 07:19:27;;;;;;;9.77;8.63;;;;;;;36.24;35.82;96961.66;5051473;28;20044;-82
2022/07/26 07:21:55;;;;;;;10.23;8.80;;;;;;;37.37;33.65;96966.13;5043533;28;20093;-83
2022/07/26 07:24:22;;;;;;;12.05;9.60;;;;;;;37.95;32.62;96945.13;5038424;28;20039;-82
2022/07/26 07:26:48;;;;;;;9.82;8.82;;;;;;;38.46;31.97;96950.53;5062918;28;20107;-83
2022/07/26 07:29:16;;;;;;;12.13;8.82;;;;;;;38.26;32.50;96968.22;5054349;28;20115;-83
2022/07/26 07:31:42;;;;;;;11.35;8.93;;;;;;;37.89;32.44;96957.41;5038439;28;20037;-83
2022/07/26 07:34:07;;;;;;;10.27;9.13;;;;;;;37.59;33.29;96957.47;5071219;28;20132;-83
2022/07/26 07:36:33;;;;;;;11.68;8.68;;;;;;;38.64;31.32;96935.91;5054162;28;20439;-83
2022/07/26 07:38:58;;;;;;;12.30;8.93;;;;;;;38.47;31.93;96953.06;5037420;28;20112;-83
2022/07/26 07:41:24;;;;;;;11.80;9.23;;;;;;;37.42;32.03;96963.31;5070343;28;20025;-82
2022/07/26 07:43:50;;;;;;;14.43;8.90;;;;;;;37.94;32.57;96960.22;5053978;28;20420;-81
2022/07/26 07:46:15;;;;;;;9.80;8.80;;;;;;;38.77;31.44;96951.22;5071719;28;20025;-82
2022/07/26 07:48:41;;;;;;;14.32;9.48;;;;;;;39.94;30.24;96943.56;5050699;28;20113;-82
2022/07/26 07:51:07;;;;;;;13.65;8.93;;;;;;;40.99;28.78;96955.47;5070577;28;20028;-82
2022/07/26 07:53:33;;;;;;;10.45;9.15;;;;;;;40.91;28.50;96942.09;5070680;28;20093;-82
2022/07/26 07:55:59;;;;;;;14.95;9.50;;;;;;;40.40;28.92;96958.75;5070522;28;20119;-83
2022/07/26 07:58:27;;;;;;;16.02;8.82;;;;;;;41.28;28.01;96932.84;5058410;28;20055;-82
2022/07/26 08:00:53;;;;;;;10.35;9.15;;;;;;;40.96;28.04;96944.84;5048368;28;20037;-82
2022/07/26 08:03:19;;;;;;;12.45;8.80;;;;;;;40.87;28.50;96949.44;5052299;28;20028;-81
2022/07/26 08:05:45;;;;;;;13.52;11.23;;;;;;;41.11;28.62;96947.41;5045879;28;20146;-82
2022/07/26 08:08:11;;;;;;;16.63;9.82;;;;;;;42.03;27.16;96946.69;5069963;28;20074;-83
2022/07/26 08:10:37;;;;;;;12.18;9.20;;;;;;;42.40;26.20;96940.91;5070166;28;20028;-83
2022/07/26 08:13:02;;;;;;;11.60;8.43;;;;;;;42.09;26.68;96946.28;5053275;28;20032;-82
2022/07/26 08:15:28;;;;;;;11.05;9.48;;;;;;;42.21;26.35;96928.91;5052995;28;20420;-82
2022/07/26 08:17:53;;;;;;;12.52;8.98;;;;;;;41.81;25.99;96924.91;5057479;28;20025;-83
2022/07/26 08:20:19;;;;;;;12.00;8.77;;;;;;;42.40;26.38;96940.06;5070175;28;20024;-83
2022/07/26 08:22:45;;;;;;;11.90;9.18;;;;;;;42.54;26.06;96918.38;5069848;28;20495;-82
2022/07/26 08:25:11;;;;;;;9.57;8.57;;;;;;;41.94;25.68;96926.91;5053242;28;20021;-82
2022/07/26 08:27:36;;;;;;;11.93;8.45;;;;;;;41.81;26.11;96929.72;5069660;28;20029;-82
2022/07/26 08:30:04;;;;;;;9.20;8.30;;;;;;;42.71;24.91;96912.09;5070050;28;20028;-82
2022/07/26 08:32:30;;;;;;;10.02;8.68;;;;;;;42.00;25.02;96911.59;5068816;28;20028;-82
2022/07/26 08:34:55;;;;;;;9.15;8.25;;;;;;;42.98;24.41;96906.47;5051781;28;20380;-83
2022/07/26 08:37:21;;;;;;;9.48;8.45;;;;;;;43.44;24.19;96903.34;5069679;28;20095;-83
2022/07/26 08:39:47;;;;;;;12.73;8.27;;;;;;;44.91;22.52;96905.63;5052392;28;20020;-83
2022/07/26 08:42:18;;;;;;;9.90;8.02;;;;;;;43.70;23.38;96893.88;5037928;28;20473;-83
2022/07/26 08:44:45;;;;;;;9.48;8.48;;;;;;;44.63;22.19;96903.13;5043654;28;20020;-82
2022/07/26 08:47:16;;;;;;;9.48;7.65;;;;;;;44.90;21.76;96893.50;5049654;28;20040;-82
2022/07/26 08:49:43;;;;;;;10.95;9.93;;;;;;;45.63;21.70;96897.31;5068201;28;20496;-83
2022/07/26 08:52:10;;;;;;;11.30;8.40;;;;;;;45.51;21.94;96902.81;5038850;28;20067;-82
2022/07/26 08:54:35;;;;;;;14.82;8.60;;;;;;;45.76;21.76;96901.97;5050824;28;20020;-83
2022/07/26 08:57:02;;;;;;;10.10;8.15;;;;;;;44.42;22.83;96889.91;5048250;28;20033;-84
2022/07/26 08:59:29;;;;;;;10.02;8.32;;;;;;;44.40;22.65;96887.41;5067376;28;20033;-83
2022/07/26 09:02:00;;;;;;;15.48;8.82;;;;;;;44.45;22.31;96890.09;5049592;28;20899;-84
2022/07/26 09:04:41;;;;;;;8.77;7.90;;;;;;;43.84;22.75;96884.53;5033492;28;20511;-82
2022/07/26 09:07:08;;;;;;;;;;;;;;;44.52;22.21;96889.59;5053181;28;20028;-83
2022/07/26 09:09:37;;;;;;;9.50;8.40;;;;;;;43.89;22.06;96882.41;5069126;28;19916;-81
2022/07/26 09:12:18;;;;;;;9.80;8.80;;;;;;;43.72;22.51;96883.09;5069254;28;20025;-82
2022/07/26 09:14:47;;;;;;;15.27;8.97;;;;;;;43.97;22.40;96892.88;5052704;28;20036;-81
2022/07/26 09:17:15;;;;;;;12.13;9.00;;;;;;;42.94;22.92;96882.84;5053142;28;20020;-83
2022/07/26 09:19:40;;;;;;;14.90;8.55;;;;;;;43.47;22.59;96880.16;5052320;28;20036;-83
2022/07/26 09:22:08;;;;;;;10.85;8.48;;;;;;;43.37;22.53;96872.81;5052572;28;20024;-84
2022/07/26 09:25:14;;;;;;;11.68;8.90;;;;;;;43.18;22.99;96878.63;5052424;28;20101;-83
2022/07/26 09:27:39;;;;;;;9.18;8.27;;;;;;;43.61;22.92;96883.72;5066117;28;20032;-82
2022/07/26 09:30:07;;;;;;;10.93;8.15;;;;;;;44.51;21.83;96882.31;5048542;28;20044;-82
2022/07/26 09:32:33;;;;;;;9.13;8.20;;;;;;;45.01;21.37;96874.28;5048483;28;20052;-82
2022/07/26 09:35:15;;;;;;;9.15;8.18;;;;;;;46.06;20.65;96872.59;5052246;28;20545;-82
2022/07/26 09:37:42;;;;;;;10.15;9.15;;;;;;;45.64;20.58;96876.34;5052271;28;20024;-82
2022/07/26 09:40:12;;;;;;;9.25;8.32;;;;;;;45.07;20.57;96859.63;5052712;28;20442;-82
2022/07/26 09:42:53;;;;;;;10.77;8.25;;;;;;;43.39;22.53;96872.47;5069132;28;20058;-82
2022/07/26 09:45:18;;;;;;;8.77;7.95;;;;;;;42.50;23.19;96855.44;5050696;28;20025;-84
2022/07/26 09:47:44;;;;;;;13.75;8.57;;;;;;;42.49;23.03;96856.56;5052922;28;20116;-82
2022/07/26 09:50:19;;;;;;;9.82;8.43;;;;;;;40.95;24.39;96869.34;5071201;28;20034;-84
2022/07/26 09:53:07;;;;;;;11.15;8.57;;;;;;;38.81;26.49;96868.41;5037969;28;20063;-84
2022/07/26 09:55:45;;;;;;;12.13;9.20;;;;;;;38.14;27.19;96864.31;5072490;28;20381;-84
2022/07/26 09:58:12;;;;;;;9.73;8.73;;;;;;;37.15;28.51;96867.03;5065099;28;20024;-82
2022/07/26 10:00:38;;;;;;;11.77;9.77;;;;;;;36.39;29.61;96861.38;5055558;28;20071;-83
2022/07/26 10:03:04;;;;;;;12.60;9.55;;;;;;;36.62;29.84;96869.22;5054008;28;20024;-82
2022/07/26 10:05:31;;;;;;;20.77;9.40;;;;;;;36.37;29.72;96866.34;5055735;28;20025;-82
2022/07/26 10:07:58;;;;;;;14.00;9.48;;;;;;;36.33;29.65;96860.50;5055274;28;20048;-82
2022/07/26 10:10:37;;;;;;;20.38;10.88;;;;;;;36.66;30.46;96875.94;5052324;28;20029;-82
2022/07/26 10:13:04;;;;;;;11.95;10.48;;;;;;;36.19;31.24;96873.28;5054710;28;20032;-82
2022/07/26 10:15:43;;;;;;;14.30;10.07;;;;;;;37.01;29.49;96871.53;5041185;28;20408;-81
2022/07/26 10:18:10;;;;;;;11.95;9.07;;;;;;;39.28;26.92;96857.41;5063312;28;20036;-82
2022/07/26 10:20:48;;;;;;;13.80;9.50;;;;;;;41.45;24.78;96857.28;5051961;28;20029;-83
2022/07/26 10:23:38;;;;;;;9.80;8.80;;;;;;;42.72;23.45;96857.50;5037750;28;20558;-83
2022/07/26 10:26:07;;;;;;;16.80;9.33;;;;;;;42.85;23.28;96840.56;5071895;28;20029;-81
2022/07/26 10:28:35;;;;;;;13.80;9.05;;;;;;;45.70;20.91;96844.75;5055134;28;20111;-84
2022/07/26 10:31:19;;;;;;;18.17;9.80;;;;;;;44.77;21.80;96846.47;5052321;28;20119;-83
2022/07/26 10:33:47;;;;;;;12.32;9.27;;;;;;;44.00;21.27;96827.34;5066153;28;20021;-83
2022/07/26 10:36:27;;;;;;;9.70;8.80;;;;;;;43.57;21.52;96827.16;5035679;28;20610;-83
2022/07/26 10:39:07;;;;;;;11.30;9.80;;;;;;;44.15;21.14;96820.44;5052183;28;20546;-83
2022/07/26 10:41:57;;;;;;;10.40;9.40;;;;;;;42.17;23.02;96818.22;5072974;28;20029;-83
2022/07/26 10:44:28;;;;;;;11.60;10.43;;;;;;;44.56;21.32;96818.06;5033259;28;20036;-83
2022/07/26 10:46:55;;;;;;;9.80;8.85;;;;;;;45.02;20.28;96825.06;5054802;28;20032;-83
2022/07/26 10:49:28;;;;;;;9.68;8.68;;;;;;;45.61;19.69;96812.81;5054745;28;20060;-82
2022/07/26 10:52:15;;;;;;;13.23;8.70;;;;;;;46.09;19.82;96812.47;5051442;28;20036;-82
2022/07/26 10:54:56;;;;;;;10.95;9.13;;;;;;;46.86;19.10;96813.97;5059562;28;20024;-83
2022/07/26 10:57:38;;;;;;;12.52;8.82;;;;;;;45.77;19.39;96801.81;5072600;28;20472;-84
2022/07/26 11:00:16;;;;;;;12.27;8.75;;;;;;;45.28;21.24;96806.91;5048861;28;20488;-84
2022/07/26 11:02:42;;;;;;;9.18;8.35;;;;;;;46.88;19.06;96793.81;5054818;28;20489;-83
2022/07/26 11:05:12;;;;;;;9.80;8.68;;;;;;;45.09;19.91;96788.66;5051932;28;20111;-83
2022/07/26 11:07:57;;;;;;;10.00;8.30;;;;;;;45.66;20.09;96789.16;5054917;28;20033;-83
2022/07/26 11:10:25;;;;;;;9.85;8.85;;;;;;;44.84;19.96;96776.22;5054531;28;20029;-82
2022/07/26 11:13:05;;;;;;;9.38;8.48;;;;;;;43.06;21.59;96785.41;5058808;28;20032;-83
2022/07/26 11:15:30;;;;;;;9.32;8.32;;;;;;;43.98;21.07;96767.63;5065509;28;20024;-83
2022/07/26 11:18:17;;;;;;;10.73;9.15;;;;;;;44.72;20.38;96771.25;5050955;28;20043;-82